Time;durP1;ratioP1;P1;durP2;ratioP2;P2;SDS_P1;SDS_P2;PMS_P1;PMS_P2;Temp;Humidity;BMP_temperature;BMP_pressure;BME280_temperature;BME280_humidity;BME280_pressure;Samples;Min_cycle;Max_cycle;Signal;HPM_P1;HPM_P2
2024/01/24 00:00:38;;;;;;;25.98;4.43;;;;;;;;;;5080106;28;20042;-73
2024/01/24 00:03:04;;;;;;;19.27;3.55;;;9.90;99.90;;;;;;5061891;28;20048;-73
2024/01/24 00:05:30;;;;;;;23.17;3.92;;;;;;;;;;5083826;28;20044;-73
2024/01/24 00:07:56;;;;;;;28.75;5.45;;;;;;;;;;5090240;28;20052;-73
2024/01/24 00:10:23;;;;;;;32.33;4.30;;;;;;;;;;5101411;28;20032;-72
2024/01/24 00:12:49;;;;;;;34.83;4.15;;;;;;;;;;5072324;28;20047;-73
2024/01/24 00:15:15;;;;;;;25.50;4.45;;;;;;;;;;5081117;28;20093;-73
2024/01/24 00:17:41;;;;;;;23.48;3.47;;;;;;;;;;5075998;28;20041;-72
2024/01/24 00:20:09;;;;;;;21.63;3.47;;;;;;;;;;5074398;28;20044;-73
2024/01/24 00:22:35;;;;;;;23.27;3.47;;;;;;;;;;5074571;28;20091;-73
2024/01/24 00:25:01;;;;;;;22.65;4.25;;;;;;;;;;5089152;28;20043;-72
2024/01/24 00:27:27;;;;;;;22.17;4.53;;;;;;;;;;5079816;28;20064;-73
2024/01/24 00:29:53;;;;;;;20.23;4.35;;;;;;;;;;5075630;28;20060;-72
2024/01/24 00:32:19;;;;;;;25.60;3.85;;;;;;;;;;5083268;28;20100;-72
2024/01/24 00:34:45;;;;;;;32.05;4.88;;;;;;;;;;5075690;28;20051;-73
2024/01/24 00:37:11;;;;;;;21.63;3.58;;;;;;;;;;5074865;28;20037;-73
2024/01/24 00:39:37;;;;;;;23.05;3.65;;;;;;;;;;5089281;28;20150;-72
2024/01/24 00:42:03;;;;;;;18.63;4.00;;;;;;;;;;5086208;28;20032;-72
2024/01/24 00:44:29;;;;;;;24.20;3.95;;;;;;;;;;5074137;28;20044;-73
2024/01/24 00:46:55;;;;;;;20.85;4.28;;;;;;;;;;5064323;28;20139;-73
2024/01/24 00:49:22;;;;;;;22.10;3.83;;;10.40;99.90;;;;;;5077913;28;20479;-73
2024/01/24 00:51:48;;;;;;;24.48;3.45;;;;;;;;;;5089397;28;20110;-73
2024/01/24 00:54:14;;;;;;;33.22;4.07;;;;;;;;;;5087079;28;20488;-72
2024/01/24 00:56:40;;;;;;;26.77;3.60;;;;;;;;;;5091104;28;20376;-72
2024/01/24 00:59:07;;;;;;;25.35;3.50;;;;;;;;;;5092026;28;20481;-73
2024/01/24 01:01:33;;;;;;;27.55;4.00;;;;;;;;;;5087832;28;20453;-73
2024/01/24 01:03:59;;;;;;;21.02;3.17;;;;;;;;;;5076047;28;20078;-73
2024/01/24 01:06:26;;;;;;;28.70;4.72;;;;;;;;;;5088547;28;20045;-73
2024/01/24 01:08:52;;;;;;;22.73;3.47;;;;;;;;;;5079175;28;20114;-73
2024/01/24 01:11:18;;;;;;;29.33;3.45;;;;;;;;;;5074146;28;20036;-73
2024/01/24 01:13:44;;;;;;;21.42;3.42;;;;;;;;;;5091107;28;20036;-72
2024/01/24 01:16:10;;;;;;;20.73;4.05;;;;;;;;;;5074286;28;20396;-73
2024/01/24 01:18:37;;;;;;;24.70;4.57;;;;;;;;;;5068950;28;20040;-73
2024/01/24 01:21:03;;;;;;;19.83;3.58;;;;;;;;;;5091811;28;20044;-73
2024/01/24 01:23:29;;;;;;;14.25;2.67;;;;;;;;;;5085786;28;20068;-72
2024/01/24 01:25:55;;;;;;;22.17;3.72;;;;;;;;;;5073566;28;20050;-73
2024/01/24 01:28:21;;;;;;;22.15;3.30;;;;;;;;;;5074636;28;20473;-72
2024/01/24 01:30:47;;;;;;;22.38;3.20;;;;;;;;;;5088670;28;20599;-72
2024/01/24 01:33:13;;;;;;;15.20;3.03;;;;;;;;;;5074229;28;20477;-73
2024/01/24 01:35:39;;;;;;;21.17;2.78;;;;;;;;;;5073406;28;20468;-72
2024/01/24 01:38:05;;;;;;;18.02;3.03;;;;;;;;;;5064755;28;20482;-73
2024/01/24 01:40:32;;;;;;;18.23;3.25;;;;;;;;;;5062673;28;20043;-72
2024/01/24 01:42:58;;;;;;;22.13;3.25;;;;;;;;;;5085487;28;20124;-72
2024/01/24 01:45:24;;;;;;;14.82;3.20;;;;;;;;;;5079182;28;20040;-72
2024/01/24 01:47:51;;;;;;;16.00;2.78;;;;;;;;;;5088155;28;20040;-71
2024/01/24 01:50:17;;;;;;;12.00;2.50;;;;;;;;;;5080598;28;20082;-72
2024/01/24 01:52:43;;;;;;;14.27;2.65;;;;;;;;;;5073802;28;20044;-72
2024/01/24 01:55:11;;;;;;;14.43;2.92;;;11.20;99.90;;;;;;5072842;28;20024;-72
2024/01/24 01:57:38;;;;;;;13.10;2.67;;;11.20;99.90;;;;;;5073261;28;20063;-72
2024/01/24 02:00:05;;;;;;;13.88;2.40;;;;;;;;;;5089668;28;20033;-72
2024/01/24 02:02:32;;;;;;;15.27;2.70;;;;;;;;;;5077195;28;20040;-72
2024/01/24 02:04:58;;;;;;;19.48;2.88;;;;;;;;;;5074737;28;20037;-72
2024/01/24 02:07:24;;;;;;;18.27;2.90;;;;;;;;;;5055974;28;20044;-72
2024/01/24 02:09:50;;;;;;;20.05;3.50;;;;;;;;;;5076657;28;20052;-72
2024/01/24 02:12:16;;;;;;;17.00;3.72;;;;;;;;;;5084850;28;20089;-72
2024/01/24 02:14:42;;;;;;;20.27;3.50;;;;;;;;;;5080464;28;20037;-72
2024/01/24 02:17:08;;;;;;;22.10;4.10;;;;;;;;;;5072435;28;20039;-72
2024/01/24 02:19:34;;;;;;;22.08;3.55;;;;;;;;;;5071989;28;20465;-72
2024/01/24 02:22:00;;;;;;;15.73;3.28;;;;;;;;;;5077376;28;20094;-72
2024/01/24 02:24:27;;;;;;;19.10;3.90;;;;;;;;;;5080205;28;20102;-72
2024/01/24 02:26:53;;;;;;;18.35;3.08;;;;;;;;;;5072621;28;20028;-72
2024/01/24 02:29:19;;;;;;;19.80;3.40;;;;;;;;;;5057842;28;20393;-72
2024/01/24 02:31:45;;;;;;;17.38;3.15;;;;;;;;;;5079540;28;20040;-72
2024/01/24 02:34:11;;;;;;;21.45;3.22;;;;;;;;;;5060332;28;20033;-72
2024/01/24 02:36:37;;;;;;;14.15;3.60;;;;;;;;;;5073799;28;20085;-72
2024/01/24 02:39:03;;;;;;;14.32;3.28;;;;;;;;;;5088671;28;20052;-72
2024/01/24 02:41:31;;;;;;;17.90;2.88;;;;;;;;;;5072957;28;20062;-72
2024/01/24 02:43:57;;;;;;;17.33;3.05;;;;;;;;;;5085165;28;20036;-72
2024/01/24 02:46:23;;;;;;;16.95;3.45;;;;;;;;;;5077088;28;20048;-72
2024/01/24 02:48:50;;;;;;;21.00;3.53;;;;;;;;;;5079672;28;20041;-72
2024/01/24 02:51:25;;;;;;;14.65;3.33;;;;;;;;;;5077508;28;20471;-72
2024/01/24 02:53:52;;;;;;;20.35;3.17;;;;;;;;;;5089939;28;20101;-74
2024/01/24 02:56:18;;;;;;;24.33;3.25;;;;;;;;;;5081977;28;20040;-72
2024/01/24 02:58:45;;;;;;;15.20;3.22;;;;;;;;;;5089100;28;20044;-72
2024/01/24 03:01:11;;;;;;;19.50;4.28;;;;;;;;;;5079643;28;20037;-72
2024/01/24 03:03:40;;;;;;;20.08;3.22;;;;;;;;;;5087902;28;20044;-72
2024/01/24 03:06:06;;;;;;;16.48;3.22;;;;;;;;;;5071180;28;20506;-72
2024/01/24 03:08:56;;;;;;;18.58;3.38;;;;;;;;;;5089794;28;20039;-71
2024/01/24 03:11:23;;;;;;;19.67;3.38;;;10.60;99.90;;;;;;5073640;28;20040;-72
2024/01/24 03:13:49;;;;;;;21.00;3.60;;;;;;;;;;5087685;28;20044;-72
2024/01/24 03:16:15;;;;;;;24.00;3.45;;;;;;;;;;5082809;28;20044;-72
2024/01/24 03:18:42;;;;;;;22.58;3.72;;;;;;;;;;5071528;28;20489;-72
2024/01/24 03:21:09;;;;;;;20.08;3.65;;;;;;;;;;5076876;28;20035;-72
2024/01/24 03:23:38;;;;;;;20.15;3.20;;;;;;;;;;5084993;28;20037;-72
2024/01/24 03:26:08;;;;;;;16.08;3.47;;;;;;;;;;5085546;28;20036;-72
2024/01/24 03:28:35;;;;;;;26.55;4.90;;;;;;;;;;5068688;28;20044;-72
2024/01/24 03:31:01;;;;;;;20.80;4.25;;;;;;;;;;5080947;28;20059;-72
2024/01/24 03:33:27;;;;;;;19.27;3.28;;;;;;;;;;5073640;28;20135;-71
2024/01/24 03:35:53;;;;;;;17.83;3.45;;;;;;;;;;5071228;28;20043;-72
2024/01/24 03:38:20;;;;;;;20.50;4.35;;;;;;;;;;5075283;28;20045;-74
2024/01/24 03:40:46;;;;;;;20.65;3.80;;;;;;;;;;5079699;28;20076;-74
2024/01/24 03:43:12;;;;;;;26.13;4.25;;;;;;;;;;5073078;28;20043;-71
2024/01/24 03:45:38;;;;;;;21.63;3.22;;;;;;;;;;5073654;28;20040;-72
2024/01/24 03:48:05;;;;;;;16.35;3.17;;;;;;;;;;5076858;28;20127;-72
2024/01/24 03:50:31;;;;;;;19.55;3.28;;;;;;;;;;5054371;28;20079;-72
2024/01/24 03:52:57;;;;;;;23.35;3.47;;;;;;;;;;5071166;28;20107;-71
2024/01/24 03:55:23;;;;;;;25.55;3.90;;;;;;;;;;5059740;28;20036;-72
2024/01/24 03:57:49;;;;;;;25.10;4.47;;;;;;;;;;5081561;28;20171;-72
2024/01/24 04:00:16;;;;;;;26.67;4.20;;;;;;;;;;5066987;28;20032;-72
2024/01/24 04:02:42;;;;;;;22.05;4.10;;;;;;;;;;5089390;28;20028;-72
2024/01/24 04:05:10;;;;;;;29.63;4.40;;;;;;;;;;5084661;28;20123;-72
2024/01/24 04:07:36;;;;;;;21.17;4.07;;;;;;;;;;5072215;28;20032;-72
2024/01/24 04:10:03;;;;;;;20.65;4.00;;;;;;;;;;5054674;28;20040;-72
2024/01/24 04:12:30;;;;;;;22.60;4.45;;;;;;;;;;5063445;28;20574;-72
2024/01/24 04:14:56;;;;;;;27.63;5.18;;;;;;;;;;5086073;28;20067;-72
2024/01/24 04:17:22;;;;;;;36.97;5.22;;;;;;;;;;5084703;28;20062;-72
2024/01/24 04:19:48;;;;;;;30.48;4.30;;;;;;;;;;5071864;28;20064;-72
2024/01/24 04:22:15;;;;;;;21.67;3.80;;;;;;;;;;5070562;28;20040;-72
2024/01/24 04:24:42;;;;;;;30.75;4.90;;;;;;;;;;5080528;28;20111;-71
2024/01/24 04:27:08;;;;;;;33.22;5.15;;;;;;;;;;5081918;28;20036;-72
2024/01/24 04:29:34;;;;;;;32.60;4.50;;;;;;;;;;5075251;28;20052;-72
2024/01/24 04:32:00;;;;;;;34.95;6.35;;;;;;;;;;5075005;28;20047;-72
2024/01/24 04:34:26;;;;;;;34.38;5.60;;;;;;;;;;5075073;28;20504;-72
2024/01/24 04:36:54;;;;;;;34.97;5.55;;;;;;;;;;5076709;28;20068;-72
2024/01/24 04:39:21;;;;;;;28.60;4.82;;;;;;;;;;5108536;28;20044;-72
2024/01/24 04:41:47;;;;;;;30.60;5.57;;;;;;;;;;5074301;28;20116;-72
2024/01/24 04:44:14;;;;;;;33.63;5.68;;;;;;;;;;5075412;28;20064;-72
2024/01/24 04:46:40;;;;;;;29.65;5.93;;;;;;;;;;5075068;28;20063;-72
2024/01/24 04:49:07;;;;;;;38.95;6.43;;;;;;;;;;5074731;28;20036;-72
2024/01/24 04:51:33;;;;;;;34.25;5.72;;;;;;;;;;5074247;28;20476;-72
2024/01/24 04:54:00;;;;;;;24.50;5.07;;;;;;;;;;5075622;28;20373;-72
2024/01/24 04:56:27;;;;;;;37.58;5.63;;;;;;;;;;5074687;28;20068;-72
2024/01/24 04:58:53;;;;;;;35.25;6.07;;;;;;;;;;5077416;28;20476;-72
2024/01/24 05:01:19;;;;;;;44.95;7.20;;;;;;;;;;5093884;28;20032;-72
2024/01/24 05:03:45;;;;;;;40.40;7.70;;;;;;;;;;5079452;28;20033;-72
2024/01/24 05:06:11;;;;;;;48.70;8.55;;;;;;;;;;5077159;28;20126;-72
2024/01/24 05:08:38;;;;;;;41.45;6.93;;;;;;;;;;5085160;28;20036;-72
2024/01/24 05:11:04;;;;;;;41.90;6.25;;;;;;;;;;5083536;28;20036;-72
2024/01/24 05:13:30;;;;;;;39.88;7.15;;;;;;;;;;5086410;28;20377;-67
2024/01/24 05:15:56;;;;;;;46.28;6.72;;;;;;;;;;5092273;28;20032;-68
2024/01/24 05:18:22;;;;;;;52.50;7.45;;;;;;;;;;5083968;28;20040;-67
2024/01/24 05:20:48;;;;;;;41.08;6.80;;;;;;;;;;5073648;28;20056;-67
2024/01/24 05:23:14;;;;;;;47.55;7.75;;;;;;;;;;5070429;28;20123;-67
2024/01/24 05:25:42;;;;;;;40.35;6.15;;;;;;;;;;5086135;28;20044;-67
2024/01/24 05:28:09;;;;;;;45.42;7.35;;;;;;;;;;5065086;28;20051;-67
2024/01/24 05:30:35;;;;;;;43.65;7.88;;;;;;;;;;5069509;28;20400;-67
2024/01/24 05:33:01;;;;;;;43.33;8.02;;;;;;;;;;5073301;28;20499;-68
2024/01/24 05:35:27;;;;;;;46.53;5.70;;;;;;;;;;5091282;28;20102;-67
2024/01/24 05:37:53;;;;;;;48.47;7.70;;;;;;;;;;5078995;28;20046;-67
2024/01/24 05:40:19;;;;;;;52.20;9.13;;;;;;;;;;5076119;28;20140;-67
2024/01/24 05:42:45;;;;;;;44.60;6.50;;;;;;;;;;5074632;28;20036;-67
2024/01/24 05:45:12;;;;;;;43.33;7.30;;;;;;;;;;5084654;28;20032;-67
2024/01/24 05:47:42;;;;;;;49.03;7.30;;;;;;;;;;5074441;28;20043;-68
2024/01/24 05:50:15;;;;;;;36.15;6.80;;;9.90;99.90;;;;;;5080427;28;20041;-67
2024/01/24 05:52:41;;;;;;;;;;;;;;;;;;5056921;28;20033;-67
2024/01/24 05:55:07;;;;;;;44.00;7.25;;;;;;;;;;5085931;28;20287;-67
2024/01/24 05:57:33;;;;;;;40.08;6.80;;;;;;;;;;5090922;28;20070;-67
2024/01/24 05:59:59;;;;;;;46.22;7.20;;;;;;;;;;5067224;28;20115;-67
2024/01/24 06:02:25;;;;;;;36.35;6.80;;;;;;;;;;5089605;28;20043;-67
2024/01/24 06:04:51;;;;;;;39.13;7.40;;;;;;;;;;5083538;28;20561;-67
2024/01/24 06:07:18;;;;;;;53.20;6.55;;;;;;;;;;5090968;28;20388;-67
2024/01/24 06:09:44;;;;;;;46.45;7.95;;;;;;;;;;5071248;28;20047;-67
2024/01/24 06:12:10;;;;;;;34.28;6.05;;;;;;;;;;5069710;28;20480;-67
2024/01/24 06:14:36;;;;;;;50.28;6.53;;;;;;;;;;5074537;28;20033;-67
2024/01/24 06:17:03;;;;;;;44.13;6.88;;;;;;;;;;5079869;28;20485;-67
2024/01/24 06:19:29;;;;;;;39.80;6.72;;;;;;;;;;5075538;28;20067;-72
2024/01/24 06:21:55;;;;;;;46.05;7.53;;;;;;;;;;5074762;28;20071;-72
2024/01/24 06:24:21;;;;;;;39.22;6.68;;;;;;;;;;5075097;28;20032;-72
2024/01/24 06:26:47;;;;;;;44.03;7.88;;;;;;;;;;5076196;28;20069;-72
2024/01/24 06:29:13;;;;;;;56.70;8.77;;;;;;;;;;5090541;28;20036;-72
2024/01/24 06:31:39;;;;;;;42.25;6.40;;;;;;;;;;5078301;28;20075;-72
2024/01/24 06:34:05;;;;;;;41.42;6.30;;;;;;;;;;5073875;28;20085;-72
2024/01/24 06:36:32;;;;;;;41.05;7.60;;;;;;;;;;5078822;28;20047;-71
2024/01/24 06:38:58;;;;;;;45.70;7.50;;;;;;;;;;5082651;28;20476;-71
2024/01/24 06:41:24;;;;;;;37.85;6.60;;;;;;;;;;5082539;28;20430;-72
2024/01/24 06:43:50;;;;;;;45.75;7.40;;;;;;;;;;5057522;28;20078;-71
2024/01/24 06:46:17;;;;;;;45.72;7.75;;;;;;;;;;5071754;28;20070;-72
2024/01/24 06:48:43;;;;;;;40.30;6.63;;;;;;;;;;5081822;28;20041;-72
2024/01/24 06:51:12;;;;;;;37.28;6.95;;;;;;;;;;5072662;28;20564;-72
2024/01/24 06:53:38;;;;;;;45.63;8.10;;;;;;;;;;5074243;28;20055;-72
2024/01/24 06:56:05;;;;;;;39.80;6.63;;;;;;;;;;5085150;28;20036;-72
2024/01/24 06:58:31;;;;;;;41.20;6.70;;;;;;;;;;5055191;28;20051;-72
2024/01/24 07:00:57;;;;;;;35.25;6.38;;;;;;;;;;5072621;28;20555;-72
2024/01/24 07:03:23;;;;;;;42.00;6.95;;;;;;;;;;5081900;28;20071;-72
2024/01/24 07:05:49;;;;;;;46.75;7.68;;;;;;;;;;5089062;28;20086;-72
2024/01/24 07:08:15;;;;;;;36.20;5.82;;;;;;;;;;5074947;28;20040;-72
2024/01/24 07:10:41;;;;;;;38.47;6.05;;;;;;;;;;5083159;28;20115;-71
2024/01/24 07:13:07;;;;;;;43.45;7.28;;;;;;;;;;5075799;28;20471;-72
2024/01/24 07:15:33;;;;;;;49.15;7.32;;;;;;;;;;5072541;28;20058;-72
2024/01/24 07:17:59;;;;;;;47.20;7.38;;;;;;;;;;5083364;28;20043;-73
2024/01/24 07:20:25;;;;;;;35.65;5.55;;;;;;;;;;5078813;28;20131;-72
2024/01/24 07:22:51;;;;;;;43.78;8.15;;;;;;;;;;5055655;28;20395;-72
2024/01/24 07:25:21;;;;;;;35.35;6.43;;;;;;;;;;5071938;28;20032;-72
2024/01/24 07:27:47;;;;;;;39.90;7.47;;;;;;;;;;5077483;28;20040;-73
2024/01/24 07:30:15;;;;;;;43.75;6.05;;;;;;;;;;5077200;28;20028;-73
2024/01/24 07:32:42;;;;;;;39.20;6.30;;;;;;;;;;5074336;28;20123;-73
2024/01/24 07:35:11;;;;;;;32.30;7.43;;;;;;;;;;5084697;28;20105;-73
2024/01/24 07:37:37;;;;;;;32.40;6.57;;;;;;;;;;5098680;28;20036;-72
2024/01/24 07:40:04;;;;;;;51.30;7.13;;;;;;;;;;5070434;28;20045;-72
2024/01/24 07:42:31;;;;;;;42.15;7.43;;;;;;;;;;5070254;28;20082;-73
2024/01/24 07:44:57;;;;;;;40.70;6.38;;;;;;;;;;5070671;28;20087;-73
2024/01/24 07:47:24;;;;;;;46.30;6.80;;;;;;;;;;5070650;28;20052;-73
2024/01/24 07:49:50;;;;;;;45.95;7.57;;;;;;;;;;5070484;28;20041;-73
2024/01/24 07:52:16;;;;;;;41.92;7.28;;;;;;;;;;5070597;28;20036;-73
2024/01/24 07:54:43;;;;;;;38.50;5.78;;;;;;;;;;5071958;28;20037;-73
2024/01/24 07:57:09;;;;;;;36.75;6.28;;;;;;;;;;5071371;28;20037;-73
2024/01/24 07:59:36;;;;;;;43.22;6.05;;;;;;;;;;5070812;28;20152;-73
2024/01/24 08:02:03;;;;;;;35.13;7.35;;;;;;;;;;5070559;28;20123;-73
2024/01/24 08:04:31;;;;;;;37.88;7.05;;;;;;;;;;5070914;28;20044;-73
2024/01/24 08:06:57;;;;;;;33.92;6.63;;;;;;;;;;5070176;28;20098;-74
2024/01/24 08:09:24;;;;;;;45.30;6.63;;;;;;;;;;5073167;28;20040;-73
2024/01/24 08:11:50;;;;;;;44.78;7.25;;;;;;;;;;5056058;28;20068;-74
2024/01/24 08:14:16;;;;;;;35.65;6.13;;;;;;;;;;5057185;28;20062;-73
2024/01/24 08:17:02;;;;;;;41.17;6.22;;;;;;;;;;5078216;28;20040;-74
2024/01/24 08:19:28;;;;;;;42.58;6.75;;;;;;;;;;5084807;28;20088;-74
2024/01/24 08:21:56;;;;;;;35.45;5.95;;;;;;;;;;5078058;28;20106;-74
2024/01/24 08:24:22;;;;;;;40.28;7.82;;;;;;;;;;5087213;28;20362;-74
2024/01/24 08:26:49;;;;;;;36.20;6.55;;;;;;;;;;5068691;28;20036;-74
2024/01/24 08:29:15;;;;;;;42.35;7.15;;;;;;;;;;5075739;28;20051;-74
2024/01/24 08:31:41;;;;;;;40.40;6.53;;;;;;;;;;5080076;28;20043;-75
2024/01/24 08:34:07;;;;;;;40.08;5.80;;;;;;;;;;5094819;28;20083;-75
2024/01/24 08:36:33;;;;;;;42.63;5.97;;;;;;;;;;5087683;28;20044;-74
2024/01/24 08:39:00;;;;;;;39.55;5.80;;;;;;;;;;5073041;28;20072;-74
2024/01/24 08:41:26;;;;;;;38.22;6.00;;;;;;;;;;5074642;28;20480;-74
2024/01/24 08:43:52;;;;;;;37.08;6.70;;;;;;;;;;5079136;28;20051;-74
2024/01/24 08:46:18;;;;;;;44.75;6.80;;;;;;;;;;5091149;28;20131;-75
2024/01/24 08:48:44;;;;;;;38.35;6.90;;;;;;;;;;5072908;28;20124;-75
2024/01/24 08:51:12;;;;;;;45.67;7.18;;;;;;;;;;5075086;28;20053;-75
2024/01/24 08:53:38;;;;;;;44.08;8.00;;;;;;;;;;5089914;28;20036;-74
2024/01/24 08:56:04;;;;;;;40.13;8.27;;;;;;;;;;5078634;28;20040;-75
2024/01/24 08:58:30;;;;;;;38.08;6.72;;;;;;;;;;5074259;28;20036;-74
2024/01/24 09:00:56;;;;;;;35.85;6.70;;;;;;;;;;5074124;28;20174;-75
2024/01/24 09:03:22;;;;;;;36.35;7.72;;;;;;;;;;5074085;28;20045;-74
2024/01/24 09:05:51;;;;;;;44.58;8.75;;;;;;;;;;5074016;28;20040;-75
2024/01/24 09:08:17;;;;;;;40.30;6.80;;;;;;;;;;5073987;28;20484;-75
2024/01/24 09:10:43;;;;;;;37.08;5.95;;;;;;;;;;5074047;28;20419;-73
2024/01/24 09:13:09;;;;;;;39.15;6.43;;;;;;;;;;5074113;28;20048;-73
2024/01/24 09:15:35;;;;;;;41.88;7.28;;;;;;;;;;5073812;28;20048;-73
2024/01/24 09:18:01;;;;;;;48.42;6.75;;;;;;;;;;5076562;28;20048;-73
2024/01/24 09:20:27;;;;;;;37.13;6.53;;;;;;;;;;5060642;28;20520;-76
2024/01/24 09:22:54;;;;;;;42.30;8.15;;;;;;;;;;5073810;28;20464;-73
2024/01/24 09:25:21;;;;;;;41.70;7.30;;;;;;;;;;5073884;28;20452;-73
2024/01/24 09:27:47;;;;;;;41.60;7.45;;;;;;;;;;5073654;28;20040;-73
2024/01/24 09:30:13;;;;;;;37.33;6.22;;;;;;;;;;5073468;28;20052;-73
2024/01/24 09:32:39;;;;;;;41.38;6.47;;;;;;;;;;5073464;28;20040;-73
2024/01/24 09:35:06;;;;;;;40.78;7.72;;;;;;;;;;5073770;28;20389;-73
2024/01/24 09:37:32;;;;;;;48.35;8.18;;;;;;;;;;5073423;28;20044;-73
2024/01/24 09:39:58;;;;;;;33.38;6.63;;;;;;;;;;5073270;28;20120;-75
2024/01/24 09:42:26;;;;;;;44.50;8.65;;;9.60;99.90;;;;;;5073223;28;20473;-73
2024/01/24 09:44:52;;;;;;;44.33;8.18;;;;;;;;;;5073189;28;20044;-73
2024/01/24 09:47:23;;;;;;;36.00;5.97;;;9.70;99.90;;;;;;5072935;28;20119;-73
2024/01/24 09:49:50;;;;;;;36.78;6.25;;;;;;;;;;5056361;28;20044;-73
2024/01/24 09:52:23;;;;;;;37.67;7.65;;;9.70;99.90;;;;;;5073275;28;20518;-73
2024/01/24 09:54:51;;;;;;;41.50;6.38;;;;;;;;;;5073251;28;20047;-74
2024/01/24 09:57:17;;;;;;;31.58;6.50;;;;;;;;;;5073269;28;20040;-74
2024/01/24 09:59:43;;;;;;;48.50;7.80;;;;;;;;;;5056158;28;20079;-74
2024/01/24 10:02:09;;;;;;;38.30;6.57;;;;;;;;;;5074151;28;20045;-74
2024/01/24 10:04:37;;;;;;;40.72;7.10;;;;;;;;;;5073044;28;20051;-74
2024/01/24 10:07:13;;;;;;;44.33;8.38;;;;;;;;;;5073012;28;20369;-74
2024/01/24 10:09:39;;;;;;;26.50;6.00;;;;;;;;;;5072693;28;20393;-74
2024/01/24 10:12:05;;;;;;;36.35;7.22;;;9.80;99.90;;;;;;5072483;28;20538;-73
2024/01/24 10:14:32;;;;;;;36.25;6.20;;;;;;;;;;5072655;28;20041;-74
2024/01/24 10:16:58;;;;;;;32.85;5.55;;;;;;;;;;5072682;28;20050;-75
2024/01/24 10:19:25;;;;;;;37.22;6.25;;;;;;;;;;5072310;28;20056;-74
2024/01/24 10:21:52;;;;;;;32.05;5.65;;;;;;;;;;5072547;28;20091;-74
2024/01/24 10:24:18;;;;;;;39.92;6.28;;;;;;;;;;5072912;28;20442;-74
2024/01/24 10:26:44;;;;;;;37.75;5.55;;;;;;;;;;5072278;28;20047;-74
2024/01/24 10:29:14;;;;;;;41.35;7.00;;;;;;;;;;5072173;28;20127;-74
2024/01/24 10:31:40;;;;;;;43.58;6.65;;;;;;;;;;5071910;28;20086;-74
2024/01/24 10:34:07;;;;;;;43.95;6.70;;;;;;;;;;5072271;28;20037;-74
2024/01/24 10:36:35;;;;;;;37.05;6.20;;;;;;;;;;5055867;28;20055;-73
2024/01/24 10:39:05;;;;;;;36.53;6.05;;;;;;;;;;5072875;28;20056;-73
2024/01/24 10:41:32;;;;;;;37.53;6.20;;;;;;;;;;5059431;28;20052;-74
2024/01/24 10:44:03;;;;;;;36.72;6.00;;;;;;;;;;5079420;28;20047;-74
2024/01/24 10:46:29;;;;;;;43.65;7.57;;;;;;;;;;5075670;28;20037;-73
2024/01/24 10:48:56;;;;;;;36.88;6.13;;;;;;;;;;5075366;28;20569;-73
2024/01/24 10:51:22;;;;;;;33.55;5.53;;;;;;;;;;5074702;28;20080;-74
2024/01/24 10:53:49;;;;;;;29.98;5.20;;;;;;;;;;5081819;28;20521;-74
2024/01/24 10:56:16;;;;;;;35.50;5.85;;;;;;;;;;5071768;28;20040;-74
2024/01/24 10:58:42;;;;;;;36.90;6.60;;;;;;;;;;5085941;28;20415;-74
2024/01/24 11:01:08;;;;;;;29.10;5.00;;;;;;;;;;5082613;28;20083;-74
2024/01/24 11:03:35;;;;;;;26.85;6.07;;;;;;;;;;5089777;28;20514;-74
2024/01/24 11:06:05;;;;;;;30.35;5.32;;;10.30;99.90;;;;;;5089214;28;20036;-74
2024/01/24 11:08:44;;;;;;;33.30;5.80;;;;;;;;;;5071949;28;20378;-74
2024/01/24 11:11:12;;;;;;;35.78;5.20;;;;;;;;;;5073601;28;20044;-74
2024/01/24 11:13:39;;;;;;;39.10;6.00;;;;;;;;;;5070859;28;20388;-74
2024/01/24 11:16:24;;;;;;;34.45;7.35;;;;;;;;;;5073000;28;20044;-74
2024/01/24 11:18:51;;;;;;;36.78;5.30;;;;;;;;;;5054542;28;20048;-73
2024/01/24 11:21:21;;;;;;;31.83;5.97;;;10.40;99.90;;;;;;5075777;28;20041;-74
2024/01/24 11:23:47;;;;;;;32.40;5.90;;;;;;;;;;5084586;28;20127;-73
2024/01/24 11:26:20;;;;;;;36.78;5.93;;;;;;;;;;5080758;28;20062;-73
2024/01/24 11:28:46;;;;;;;38.10;6.57;;;;;;;;;;5071242;28;20127;-74
2024/01/24 11:31:13;;;;;;;34.67;5.78;;;10.40;99.90;;;;;;5054801;28;20333;-74
2024/01/24 11:34:11;;;;;;;29.08;5.32;;;10.40;99.90;;;;;;5071352;28;20043;-74
2024/01/24 11:36:48;;;;;;;29.40;4.88;;;10.50;99.90;;;;;;5070874;28;20455;-74
2024/01/24 11:39:30;;;;;;;32.17;5.35;;;10.40;99.90;;;;;;5072387;28;20040;-74
2024/01/24 11:42:24;;;;;;;30.83;5.20;;;10.70;99.90;;;;;;5072814;28;20074;-73
2024/01/24 11:44:50;;;;;;;28.92;4.95;;;;;;;;;;5091556;28;20063;-73
2024/01/24 11:47:16;;;;;;;31.38;4.97;;;;;;;;;;5095633;28;20048;-74
2024/01/24 11:49:48;;;;;;;30.67;5.40;;;10.70;99.90;;;;;;5076839;28;20033;-74
2024/01/24 11:52:19;;;;;;;31.65;5.35;;;;;;;;;;5076655;28;20037;-73
2024/01/24 11:54:52;;;;;;;29.77;4.97;;;10.80;99.90;;;;;;5076008;28;20373;-73
2024/01/24 11:57:18;;;;;;;35.22;6.25;;;;;;;;;;5074643;28;20500;-73
2024/01/24 11:59:44;;;;;;;30.77;6.20;;;;;;;;;;5086999;28;20048;-73
2024/01/24 12:02:10;;;;;;;31.50;6.72;;;;;;;;;;5076842;28;20078;-71
2024/01/24 12:04:36;;;;;;;27.67;5.30;;;;;;;;;;5089122;28;20446;-74
2024/01/24 12:07:02;;;;;;;26.75;5.88;;;;;;;;;;5095860;28;20097;-74
2024/01/24 12:09:28;;;;;;;33.55;5.75;;;;;;;;;;5088277;28;20041;-74
2024/01/24 12:11:54;;;;;;;31.17;5.47;;;;;;;;;;5095236;28;20082;-74
2024/01/24 12:14:20;;;;;;;26.65;5.38;;;;;;;;;;5095391;28;20055;-74
2024/01/24 12:16:47;;;;;;;33.40;6.25;;;;;;;;;;5075695;28;20033;-74
2024/01/24 12:19:16;;;;;;;33.03;5.40;;;10.90;99.90;;;;;;5078555;28;20468;-74
2024/01/24 12:21:43;;;;;;;29.20;6.53;;;;;;;;;;5065693;28;20083;-74
2024/01/24 12:24:09;;;;;;;31.65;5.05;;;;;;;;;;5067022;28;20040;-74
2024/01/24 12:26:36;;;;;;;29.70;6.40;;;;;;;;;;5080219;28;20055;-74
2024/01/24 12:29:03;;;;;;;32.55;5.60;;;;;;;;;;5074814;28;20123;-74
2024/01/24 12:31:29;;;;;;;31.25;6.90;;;;;;;;;;5074947;28;20115;-74
2024/01/24 12:33:56;;;;;;;33.72;6.15;;;;;;;;;;5081600;28;20502;-74
2024/01/24 12:36:26;;;;;;;33.58;5.80;;;10.80;99.90;;;;;;5072477;28;20036;-74
2024/01/24 12:38:56;;;;;;;34.45;5.72;;;10.90;99.90;;;;;;5094777;28;20048;-74
2024/01/24 12:41:22;;;;;;;37.75;5.53;;;;;;;;;;5085242;28;20111;-73
2024/01/24 12:43:48;;;;;;;34.58;5.78;;;;;;;;;;5074411;28;20045;-73
2024/01/24 12:46:15;;;;;;;31.15;5.40;;;;;;;;;;5072364;28;20042;-73
2024/01/24 12:48:41;;;;;;;35.10;6.53;;;;;;;;;;5074175;28;20442;-73
2024/01/24 12:51:07;;;;;;;32.47;4.90;;;;;;;;;;5074296;28;20043;-73
2024/01/24 12:53:33;;;;;;;35.78;5.80;;;;;;;;;;5074051;28;20041;-74
2024/01/24 12:56:00;;;;;;;40.83;5.82;;;;;;;;;;5073802;28;20063;-73
2024/01/24 12:58:26;;;;;;;36.83;5.85;;;;;;;;;;5079157;28;20429;-73
2024/01/24 13:00:52;;;;;;;35.85;5.88;;;;;;;;;;5074342;28;20063;-73
2024/01/24 13:03:18;;;;;;;32.42;6.43;;;;;;;;;;5073753;28;20052;-73
2024/01/24 13:05:44;;;;;;;40.25;6.43;;;;;;;;;;5075815;28;20045;-74
2024/01/24 13:08:10;;;;;;;30.77;6.15;;;;;;;;;;5084133;28;20044;-74
2024/01/24 13:10:42;;;;;;;32.63;6.15;;;;;;;;;;5071881;28;20071;-74
2024/01/24 13:13:10;;;;;;;32.58;7.03;;;;;;;;;;5091012;28;20073;-74
2024/01/24 13:15:36;;;;;;;29.83;5.07;;;;;;;;;;5094416;28;20507;-74
2024/01/24 13:18:02;;;;;;;34.53;6.15;;;;;;;;;;5094245;28;20040;-74
2024/01/24 13:20:28;;;;;;;26.95;6.15;;;;;;;;;;5093758;28;20044;-73
2024/01/24 13:22:57;;;;;;;35.50;5.00;;;;;;;;;;5086682;28;20118;-74
2024/01/24 13:25:25;;;;;;;30.08;6.30;;;;;;;;;;5090958;28;20480;-74
2024/01/24 13:27:51;;;;;;;35.85;6.00;;;;;;;;;;5091560;28;20526;-73
2024/01/24 13:30:17;;;;;;;38.60;7.35;;;;;;;;;;5093118;28;20416;-73
2024/01/24 13:32:43;;;;;;;35.42;6.57;;;;;;;;;;5086336;28;20032;-74
2024/01/24 13:35:09;;;;;;;38.78;5.88;;;;;;;;;;5076492;28;20036;-73
2024/01/24 13:37:36;;;;;;;34.65;5.40;;;;;;;;;;5072676;28;20072;-73
2024/01/24 13:40:02;;;;;;;36.13;5.63;;;;;;;;;;5073847;28;20048;-73
2024/01/24 13:42:29;;;;;;;34.40;5.30;;;;;;;;;;5074350;28;20053;-73
2024/01/24 13:44:56;;;;;;;37.83;6.22;;;;;;;;;;5073837;28;20047;-73
2024/01/24 13:47:22;;;;;;;33.33;5.75;;;;;;;;;;5074439;28;20037;-73
2024/01/24 13:49:48;;;;;;;40.38;5.55;;;;;;;;;;5076231;28;20074;-74
2024/01/24 13:52:14;;;;;;;34.55;6.78;;;;;;;;;;5039509;28;20032;-73
2024/01/24 13:54:40;;;;;;;33.67;6.60;;;;;;;;;;5072352;28;20033;-73
2024/01/24 13:57:06;;;;;;;41.28;6.05;;;;;;;;;;5073022;28;20047;-73
2024/01/24 13:59:32;;;;;;;39.78;6.32;;;;;;;;;;5041809;28;20498;-73
2024/01/24 14:01:59;;;;;;;34.15;6.85;;;;;;;;;;5056126;28;20074;-73
2024/01/24 14:04:25;;;;;;;31.98;6.40;;;;;;;;;;5039436;28;20076;-73
2024/01/24 14:06:51;;;;;;;33.30;5.88;;;;;;;;;;5088940;28;20040;-73
2024/01/24 14:09:17;;;;;;;35.25;4.63;;;;;;;;;;5082570;28;20040;-73
2024/01/24 14:11:44;;;;;;;33.60;6.07;;;;;;;;;;5072990;28;20086;-74
2024/01/24 14:14:10;;;;;;;29.83;6.00;;;;;;;;;;5081551;28;20090;-73
2024/01/24 14:16:36;;;;;;;39.63;7.18;;;;;;;;;;5075667;28;20076;-73
2024/01/24 14:19:02;;;;;;;49.78;8.55;;;;;;;;;;5071983;28;20049;-73
2024/01/24 14:21:29;;;;;;;33.33;5.80;;;;;;;;;;5072564;28;20080;-73